Big Bend Natl Park, TX

9:03 PM CDT on September 25, 2017 (GMT -0500)
Big Bend - Chisos View | | Change Station
Active Advisory: Flash Flood Watch Active Notice: Flash Flood Watch

Elev 3497 ft 29.47 °N, 103.38 °W | Updated 4 minutes ago

Partly Cloudy
Partly Cloudy
77.0 °F
Feels Like 79 °F
N
9.0
Wind Variable Wind from NE
Gusts 10.0 mph

Today
High -- | Low -- °F
--% Chance of Precip.
Yesterday
High -- | Low -- °F
Precip. -- in
Pressure 29.78 in
Visibility 10.0 miles
Clouds Clear
Heat Index 79 °F
Dew Point 70 °F
Humidity 78%
Rainfall 0.00 in
Snow Depth Not available.
7:42 AM 7:45 PM
Waxing Crescent, 31% visible
METAR KPRS 260155Z AUTO 10006KT 10SM CLR 29/18 A2978 RMK AO2 T02850182
Pressure 29.78 in
Visibility 10.0 miles
Clouds Clear
Heat Index 79 °F
Dew Point 70 °F
Humidity 78%
Rainfall 0.00 in
Snow Depth Not available.
7:42 AM 7:45 PM
Waxing Crescent, 31% visible
METAR KPRS 260155Z AUTO 10006KT 10SM CLR 29/18 A2978 RMK AO2 T02850182

Get Your Daily Forecast Email!

Thanks for signing up!

Be on the lookout for a verification email in your inbox.

You'll start receiving severe weather alerts in your inbox..

×

10-Day Weather Forecast

Almanac

Astronomy

Sep. 25, 2017 Rise Set
Actual Time
Civil Twilight
Nautical Twilight
Astronomical Twilight
Moon
Length of Visible Light
Length of Day
Tomorrow will be .
, % of the Moon is Illuminated

Today's Extremes

State Highs State Lows

Community

WunderPhotos

Category 6

Welcome to Category 6. This is the collective home for Weather Underground's featured writeups by Dr. Jeff Masters (right), Bob Henson (left), Chris Burt, and other regular contributors.

Nearby

Air Quality

  Air Quality AQ Index Pollutant
Not available.

Snow Depth

Station Depth Elevation

Earthquake Activity

City Distance Mag. Time & Date
Minimum magnitude displayed is 2.5.

Coastal Water Temperatures

Place Temperature

Stations

Nearby Weather Stations

Station Location Temp. Windchill Dew Point Humidity Wind Precip. Elev Updated Type
                   

Watches & Warnings

Flash Flood Watch
Issued: 3:26 PM CDT Sep. 25, 2017 – National Weather Service

... Flash Flood Watch in effect from 7 PM CDT this evening through
Thursday morning...

The National Weather Service in Midland/Odessa has issued a

* heavy rainfall will result in flash flooding of arroyos and
small streams. Urban flash flooding will also be possible
within cities and towns.

* Dont drive into areas where water covers the Road. The water
may be deeper than it appears and less than a foot of rushing
water can float many vehicles. If you encounter water flowing
across a roadway, turn around, don't drown.

Precautionary/preparedness actions...

A Flash Flood Watch means that conditions may develop that lead
to flash flooding. Flash flooding is a very dangerous situation.

You should monitor later forecasts and be prepared to take action
should flash flood warnings be issued.